Cadiz, KY

10:01 AM CDT on August 27, 2016 (GMT -0500)
enchanted shores | | Change Station

Elev 404 ft 36.86 °N, 87.94 °W | Updated 10 minutes ago

Clear
Clear
78.3 °F
Feels Like 81 °F
N
1.7
Wind Variable Wind from WSW

Today
High -- | Low -- °F
--% Chance of Precip.
Yesterday
High -- | Low -- °F
Precip. -- in
Pressure 30.10 in
Visibility 10.0 miles
Clouds Clear
Heat Index 81 °F
Dew Point 73 °F
Humidity 85%
Rainfall 0.05 in
Snow Depth Not available.
6:18 AM 7:25 PM
Waning Crescent, 24% visible
METAR KHOP 271458Z AUTO 17002KT 10SM CLR 28/23 A3011 RMK AO2 DZB1358E06RAB06E33DZB33E40DZB49E55DZB56 SLP192 P0000 60000 52012
Pressure 30.10 in
Visibility 10.0 miles
Clouds Clear
Heat Index 81 °F
Dew Point 73 °F
Humidity 85%
Rainfall 0.05 in
Snow Depth Not available.
6:18 AM 7:25 PM
Waning Crescent, 24% visible
METAR KHOP 271458Z AUTO 17002KT 10SM CLR 28/23 A3011 RMK AO2 DZB1358E06RAB06E33DZB33E40DZB49E55DZB56 SLP192 P0000 60000 52012

10-Day Weather Forecast

Almanac

Astronomy

Aug. 27, 2016 Rise Set
Actual Time
Civil Twilight
Nautical Twilight
Astronomical Twilight
Moon
Length of Visible Light
Length of Day
Tomorrow will be .
, % of the Moon is Illuminated

Today's Extremes

State Highs State Lows

Community

WunderPhotos

Upload Photos

1,935,354 photos uploaded!

WunderBlog® & News

Nearby

Air Quality

  Air Quality AQ Index Pollutant
Not available.

Snow Depth

Station Depth Elevation

Earthquake Activity

City Distance Mag. Time & Date
Minimum magnitude displayed is 2.5.

Coastal Water Temperatures

Place Temperature

Stations

Nearby Weather Stations

Station Location Temp. Windchill Dew Point Humidity Wind Precip. Elev Updated Type
                   

Watches & Warnings

There are currently no watches in effect.